Grand Etang, Canada
Current Conditions -  °F | °C
As of 12:49 PM on Tuesday 27 Jan 2015 (Local Time) from CYQY Reporting Station
Moderate Snow Moderate Snow  
Wind Chill:   Ceiling: 500
Heat Index: 25°   Visibility: 0.5mi
Dew Point: 23°   Wind: 31mph
Humidity: 93%   Direction: 60°ENE
Pressure: 29.8"   Gusts: 46mph
Location:  46.55°N, 61.04°W
Report Text: CYQY 271649Z 06027G40KT 1/2SM R07/3000FT/D SN BLSN DRSN OVC005 M04/M05 A2980 RMK ST8 PRESFR SLP097
Loading
Personal Weather Stations






























Interactive Weather Map New forecast layout! Learn more

10-Day Weather Forecast

Advertisements
Track Severe Weather on mobile